sensor_id;sensor_type;location;lat;lon;timestamp;P1;durP1;ratioP1;P2;durP2;ratioP2
60318;SDS011;46163;52.306;5.634;2022-11-10T00:00:56;1.00;;;1.00;;
60318;SDS011;46163;52.306;5.634;2022-11-10T00:03:22;6.57;;;0.90;;
60318;SDS011;46163;52.306;5.634;2022-11-10T00:05:48;1.17;;;0.85;;
60318;SDS011;46163;52.306;5.634;2022-11-10T00:08:14;2.08;;;1.00;;
60318;SDS011;46163;52.306;5.634;2022-11-10T00:10:40;2.42;;;0.85;;
60318;SDS011;46163;52.306;5.634;2022-11-10T00:13:29;0.77;;;0.77;;
60318;SDS011;46163;52.306;5.634;2022-11-10T00:15:59;1.98;;;1.05;;
60318;SDS011;46163;52.306;5.634;2022-11-10T00:18:44;1.38;;;0.88;;
60318;SDS011;46163;52.306;5.634;2022-11-10T00:21:10;0.90;;;0.90;;
60318;SDS011;46163;52.306;5.634;2022-11-10T00:23:37;0.77;;;0.77;;
60318;SDS011;46163;52.306;5.634;2022-11-10T00:26:03;0.82;;;0.82;;
60318;SDS011;46163;52.306;5.634;2022-11-10T00:28:42;1.30;;;0.80;;
60318;SDS011;46163;52.306;5.634;2022-11-10T00:31:08;1.60;;;0.80;;
60318;SDS011;46163;52.306;5.634;2022-11-10T00:33:34;1.60;;;0.90;;
60318;SDS011;46163;52.306;5.634;2022-11-10T00:36:01;0.83;;;0.83;;
60318;SDS011;46163;52.306;5.634;2022-11-10T00:38:26;0.77;;;0.77;;
60318;SDS011;46163;52.306;5.634;2022-11-10T00:40:52;0.95;;;0.73;;
60318;SDS011;46163;52.306;5.634;2022-11-10T00:43:17;0.95;;;0.80;;
60318;SDS011;46163;52.306;5.634;2022-11-10T00:45:43;1.10;;;1.02;;
60318;SDS011;46163;52.306;5.634;2022-11-10T00:48:09;1.08;;;1.00;;
60318;SDS011;46163;52.306;5.634;2022-11-10T00:50:34;1.10;;;1.00;;
60318;SDS011;46163;52.306;5.634;2022-11-10T00:52:59;0.95;;;0.80;;
60318;SDS011;46163;52.306;5.634;2022-11-10T00:55:25;1.77;;;1.10;;
60318;SDS011;46163;52.306;5.634;2022-11-10T00:57:50;0.82;;;0.80;;
60318;SDS011;46163;52.306;5.634;2022-11-10T01:00:16;1.08;;;0.98;;
60318;SDS011;46163;52.306;5.634;2022-11-10T01:02:41;1.38;;;0.75;;
60318;SDS011;46163;52.306;5.634;2022-11-10T01:05:07;1.83;;;1.10;;
60318;SDS011;46163;52.306;5.634;2022-11-10T01:07:34;1.17;;;1.08;;
60318;SDS011;46163;52.306;5.634;2022-11-10T01:09:59;0.93;;;0.93;;
60318;SDS011;46163;52.306;5.634;2022-11-10T01:12:27;0.90;;;0.90;;
60318;SDS011;46163;52.306;5.634;2022-11-10T01:14:54;1.00;;;1.00;;
60318;SDS011;46163;52.306;5.634;2022-11-10T01:17:20;1.00;;;1.00;;
60318;SDS011;46163;52.306;5.634;2022-11-10T01:19:45;1.08;;;0.80;;
60318;SDS011;46163;52.306;5.634;2022-11-10T01:22:11;1.27;;;1.17;;
60318;SDS011;46163;52.306;5.634;2022-11-10T01:24:37;0.82;;;0.82;;
60318;SDS011;46163;52.306;5.634;2022-11-10T01:27:02;0.70;;;0.70;;
60318;SDS011;46163;52.306;5.634;2022-11-10T01:29:30;1.02;;;1.00;;
60318;SDS011;46163;52.306;5.634;2022-11-10T01:31:55;2.22;;;1.13;;
60318;SDS011;46163;52.306;5.634;2022-11-10T01:34:21;1.55;;;0.90;;
60318;SDS011;46163;52.306;5.634;2022-11-10T01:36:47;1.00;;;1.00;;
60318;SDS011;46163;52.306;5.634;2022-11-10T01:39:12;0.95;;;0.90;;
60318;SDS011;46163;52.306;5.634;2022-11-10T01:41:38;1.00;;;1.00;;
60318;SDS011;46163;52.306;5.634;2022-11-10T01:44:14;1.08;;;1.00;;
60318;SDS011;46163;52.306;5.634;2022-11-10T01:46:45;1.00;;;0.90;;
60318;SDS011;46163;52.306;5.634;2022-11-10T01:49:11;0.90;;;0.90;;
60318;SDS011;46163;52.306;5.634;2022-11-10T01:51:41;1.25;;;1.17;;
60318;SDS011;46163;52.306;5.634;2022-11-10T01:54:23;0.73;;;0.73;;
60318;SDS011;46163;52.306;5.634;2022-11-10T01:56:52;0.90;;;0.90;;
60318;SDS011;46163;52.306;5.634;2022-11-10T01:59:23;0.80;;;0.80;;
60318;SDS011;46163;52.306;5.634;2022-11-10T02:01:52;0.98;;;0.98;;
60318;SDS011;46163;52.306;5.634;2022-11-10T02:04:20;0.82;;;0.82;;
60318;SDS011;46163;52.306;5.634;2022-11-10T02:06:46;0.80;;;0.80;;
60318;SDS011;46163;52.306;5.634;2022-11-10T02:09:13;0.80;;;0.80;;
60318;SDS011;46163;52.306;5.634;2022-11-10T02:11:41;1.65;;;0.80;;
60318;SDS011;46163;52.306;5.634;2022-11-10T02:14:06;1.55;;;0.90;;
60318;SDS011;46163;52.306;5.634;2022-11-10T02:16:33;0.90;;;0.90;;
60318;SDS011;46163;52.306;5.634;2022-11-10T02:22:04;0.80;;;0.80;;
60318;SDS011;46163;52.306;5.634;2022-11-10T02:24:40;0.75;;;0.75;;
60318;SDS011;46163;52.306;5.634;2022-11-10T02:27:05;1.52;;;1.10;;
60318;SDS011;46163;52.306;5.634;2022-11-10T02:29:31;0.90;;;0.90;;
60318;SDS011;46163;52.306;5.634;2022-11-10T02:31:57;0.70;;;0.70;;
60318;SDS011;46163;52.306;5.634;2022-11-10T02:34:23;1.45;;;1.10;;
60318;SDS011;46163;52.306;5.634;2022-11-10T02:36:49;1.02;;;0.95;;
60318;SDS011;46163;52.306;5.634;2022-11-10T02:39:14;1.75;;;0.95;;
60318;SDS011;46163;52.306;5.634;2022-11-10T02:41:40;0.90;;;0.90;;
60318;SDS011;46163;52.306;5.634;2022-11-10T02:44:05;1.00;;;0.98;;
60318;SDS011;46163;52.306;5.634;2022-11-10T02:46:31;1.35;;;0.90;;
60318;SDS011;46163;52.306;5.634;2022-11-10T02:48:57;1.02;;;0.95;;
60318;SDS011;46163;52.306;5.634;2022-11-10T02:51:22;0.98;;;0.90;;
60318;SDS011;46163;52.306;5.634;2022-11-10T02:53:49;0.70;;;0.70;;
60318;SDS011;46163;52.306;5.634;2022-11-10T02:56:14;0.90;;;0.73;;
60318;SDS011;46163;52.306;5.634;2022-11-10T02:58:40;0.90;;;0.90;;
60318;SDS011;46163;52.306;5.634;2022-11-10T03:01:05;0.95;;;0.82;;
60318;SDS011;46163;52.306;5.634;2022-11-10T03:03:31;0.80;;;0.80;;
60318;SDS011;46163;52.306;5.634;2022-11-10T03:05:58;1.70;;;0.77;;
60318;SDS011;46163;52.306;5.634;2022-11-10T03:08:24;1.23;;;0.80;;
60318;SDS011;46163;52.306;5.634;2022-11-10T03:10:53;0.90;;;0.90;;
60318;SDS011;46163;52.306;5.634;2022-11-10T03:13:20;0.80;;;0.80;;
60318;SDS011;46163;52.306;5.634;2022-11-10T03:15:47;1.40;;;1.00;;
60318;SDS011;46163;52.306;5.634;2022-11-10T03:18:12;1.65;;;1.00;;
60318;SDS011;46163;52.306;5.634;2022-11-10T03:20:38;0.90;;;0.90;;
60318;SDS011;46163;52.306;5.634;2022-11-10T03:23:05;0.68;;;0.68;;
60318;SDS011;46163;52.306;5.634;2022-11-10T03:25:31;0.88;;;0.88;;
60318;SDS011;46163;52.306;5.634;2022-11-10T03:27:57;1.17;;;0.93;;
60318;SDS011;46163;52.306;5.634;2022-11-10T03:30:23;1.13;;;0.90;;
60318;SDS011;46163;52.306;5.634;2022-11-10T03:32:48;0.80;;;0.80;;
60318;SDS011;46163;52.306;5.634;2022-11-10T03:35:14;0.80;;;0.80;;
60318;SDS011;46163;52.306;5.634;2022-11-10T03:37:41;1.65;;;1.23;;
60318;SDS011;46163;52.306;5.634;2022-11-10T03:40:06;1.85;;;0.90;;
60318;SDS011;46163;52.306;5.634;2022-11-10T03:42:35;0.68;;;0.60;;
60318;SDS011;46163;52.306;5.634;2022-11-10T03:45:00;0.65;;;0.65;;
60318;SDS011;46163;52.306;5.634;2022-11-10T03:47:26;0.88;;;0.88;;
60318;SDS011;46163;52.306;5.634;2022-11-10T03:49:51;0.88;;;0.82;;
60318;SDS011;46163;52.306;5.634;2022-11-10T03:52:17;1.52;;;1.00;;
60318;SDS011;46163;52.306;5.634;2022-11-10T03:54:42;1.27;;;0.90;;
60318;SDS011;46163;52.306;5.634;2022-11-10T03:57:09;1.05;;;0.95;;
60318;SDS011;46163;52.306;5.634;2022-11-10T03:59:34;1.30;;;1.02;;
60318;SDS011;46163;52.306;5.634;2022-11-10T04:02:00;0.90;;;0.85;;
60318;SDS011;46163;52.306;5.634;2022-11-10T04:04:26;0.75;;;0.75;;
60318;SDS011;46163;52.306;5.634;2022-11-10T04:07:11;2.42;;;0.90;;
60318;SDS011;46163;52.306;5.634;2022-11-10T04:09:56;0.90;;;0.90;;
60318;SDS011;46163;52.306;5.634;2022-11-10T04:12:21;1.45;;;0.90;;
60318;SDS011;46163;52.306;5.634;2022-11-10T04:15:07;0.80;;;0.80;;
60318;SDS011;46163;52.306;5.634;2022-11-10T04:17:53;0.85;;;0.85;;
60318;SDS011;46163;52.306;5.634;2022-11-10T04:20:18;0.90;;;0.85;;
60318;SDS011;46163;52.306;5.634;2022-11-10T04:22:44;0.80;;;0.80;;
60318;SDS011;46163;52.306;5.634;2022-11-10T04:25:28;0.80;;;0.80;;
60318;SDS011;46163;52.306;5.634;2022-11-10T04:27:54;0.93;;;0.85;;
60318;SDS011;46163;52.306;5.634;2022-11-10T04:30:19;0.90;;;0.90;;
60318;SDS011;46163;52.306;5.634;2022-11-10T04:32:45;0.82;;;0.82;;
60318;SDS011;46163;52.306;5.634;2022-11-10T04:35:10;0.90;;;0.90;;
60318;SDS011;46163;52.306;5.634;2022-11-10T04:37:36;0.75;;;0.75;;
60318;SDS011;46163;52.306;5.634;2022-11-10T04:40:01;0.80;;;0.80;;
60318;SDS011;46163;52.306;5.634;2022-11-10T04:42:27;1.27;;;0.80;;
60318;SDS011;46163;52.306;5.634;2022-11-10T04:44:52;0.70;;;0.70;;
60318;SDS011;46163;52.306;5.634;2022-11-10T04:47:18;0.70;;;0.70;;
60318;SDS011;46163;52.306;5.634;2022-11-10T04:49:44;0.63;;;0.63;;
60318;SDS011;46163;52.306;5.634;2022-11-10T04:52:09;0.70;;;0.70;;
60318;SDS011;46163;52.306;5.634;2022-11-10T04:54:34;0.90;;;0.90;;
60318;SDS011;46163;52.306;5.634;2022-11-10T04:57:00;1.95;;;0.93;;
60318;SDS011;46163;52.306;5.634;2022-11-10T04:59:25;1.00;;;0.80;;
60318;SDS011;46163;52.306;5.634;2022-11-10T05:01:51;0.70;;;0.70;;
60318;SDS011;46163;52.306;5.634;2022-11-10T05:04:16;0.73;;;0.68;;
60318;SDS011;46163;52.306;5.634;2022-11-10T05:06:42;0.65;;;0.65;;
60318;SDS011;46163;52.306;5.634;2022-11-10T05:09:07;0.70;;;0.70;;
60318;SDS011;46163;52.306;5.634;2022-11-10T05:11:33;1.80;;;0.93;;
60318;SDS011;46163;52.306;5.634;2022-11-10T05:13:59;0.57;;;0.57;;
60318;SDS011;46163;52.306;5.634;2022-11-10T05:16:24;0.90;;;0.75;;
60318;SDS011;46163;52.306;5.634;2022-11-10T05:18:51;0.45;;;0.45;;
60318;SDS011;46163;52.306;5.634;2022-11-10T05:21:18;0.75;;;0.75;;
60318;SDS011;46163;52.306;5.634;2022-11-10T05:23:44;0.77;;;0.70;;
60318;SDS011;46163;52.306;5.634;2022-11-10T05:26:11;0.50;;;0.50;;
60318;SDS011;46163;52.306;5.634;2022-11-10T05:28:42;0.88;;;0.52;;
60318;SDS011;46163;52.306;5.634;2022-11-10T05:31:10;0.70;;;0.70;;
60318;SDS011;46163;52.306;5.634;2022-11-10T05:33:36;0.80;;;0.80;;
60318;SDS011;46163;52.306;5.634;2022-11-10T05:36:03;0.73;;;0.70;;
60318;SDS011;46163;52.306;5.634;2022-11-10T05:38:29;0.70;;;0.70;;
60318;SDS011;46163;52.306;5.634;2022-11-10T05:40:55;0.50;;;0.50;;
60318;SDS011;46163;52.306;5.634;2022-11-10T05:43:21;0.80;;;0.80;;
60318;SDS011;46163;52.306;5.634;2022-11-10T05:45:46;0.80;;;0.70;;
60318;SDS011;46163;52.306;5.634;2022-11-10T05:48:12;0.80;;;0.80;;
60318;SDS011;46163;52.306;5.634;2022-11-10T05:50:37;0.77;;;0.77;;
60318;SDS011;46163;52.306;5.634;2022-11-10T05:53:03;1.38;;;0.90;;
60318;SDS011;46163;52.306;5.634;2022-11-10T05:55:29;0.60;;;0.60;;
60318;SDS011;46163;52.306;5.634;2022-11-10T05:57:55;0.68;;;0.68;;
60318;SDS011;46163;52.306;5.634;2022-11-10T06:00:25;0.85;;;0.65;;
60318;SDS011;46163;52.306;5.634;2022-11-10T06:02:55;0.47;;;0.47;;
60318;SDS011;46163;52.306;5.634;2022-11-10T06:05:22;0.90;;;0.80;;
60318;SDS011;46163;52.306;5.634;2022-11-10T06:07:48;0.50;;;0.50;;
60318;SDS011;46163;52.306;5.634;2022-11-10T06:10:14;0.77;;;0.73;;
60318;SDS011;46163;52.306;5.634;2022-11-10T06:12:40;0.80;;;0.80;;
60318;SDS011;46163;52.306;5.634;2022-11-10T06:15:05;0.70;;;0.70;;
60318;SDS011;46163;52.306;5.634;2022-11-10T06:17:32;0.57;;;0.57;;
60318;SDS011;46163;52.306;5.634;2022-11-10T06:19:57;0.50;;;0.50;;
60318;SDS011;46163;52.306;5.634;2022-11-10T06:22:23;0.70;;;0.70;;
60318;SDS011;46163;52.306;5.634;2022-11-10T06:24:49;0.75;;;0.75;;
60318;SDS011;46163;52.306;5.634;2022-11-10T06:27:15;0.70;;;0.70;;
60318;SDS011;46163;52.306;5.634;2022-11-10T06:29:40;0.60;;;0.60;;
60318;SDS011;46163;52.306;5.634;2022-11-10T06:32:06;0.70;;;0.70;;
60318;SDS011;46163;52.306;5.634;2022-11-10T06:34:31;1.45;;;0.77;;
60318;SDS011;46163;52.306;5.634;2022-11-10T06:36:57;0.85;;;0.85;;
60318;SDS011;46163;52.306;5.634;2022-11-10T06:39:25;0.95;;;0.65;;
60318;SDS011;46163;52.306;5.634;2022-11-10T06:41:52;1.55;;;0.65;;
60318;SDS011;46163;52.306;5.634;2022-11-10T06:44:17;2.20;;;1.00;;
60318;SDS011;46163;52.306;5.634;2022-11-10T06:46:43;0.85;;;0.73;;
60318;SDS011;46163;52.306;5.634;2022-11-10T06:49:09;0.50;;;0.50;;
60318;SDS011;46163;52.306;5.634;2022-11-10T06:51:35;0.80;;;0.80;;
60318;SDS011;46163;52.306;5.634;2022-11-10T06:54:01;1.05;;;0.68;;
60318;SDS011;46163;52.306;5.634;2022-11-10T06:56:26;0.55;;;0.55;;
60318;SDS011;46163;52.306;5.634;2022-11-10T06:58:52;0.70;;;0.68;;
60318;SDS011;46163;52.306;5.634;2022-11-10T07:01:18;0.98;;;0.93;;
60318;SDS011;46163;52.306;5.634;2022-11-10T07:03:45;0.70;;;0.70;;
60318;SDS011;46163;52.306;5.634;2022-11-10T07:06:10;2.05;;;1.00;;
60318;SDS011;46163;52.306;5.634;2022-11-10T07:08:36;2.45;;;1.00;;
60318;SDS011;46163;52.306;5.634;2022-11-10T07:11:01;1.77;;;1.13;;
60318;SDS011;46163;52.306;5.634;2022-11-10T07:13:26;1.13;;;1.00;;
60318;SDS011;46163;52.306;5.634;2022-11-10T07:15:52;0.90;;;0.90;;
60318;SDS011;46163;52.306;5.634;2022-11-10T07:18:22;2.17;;;1.10;;
60318;SDS011;46163;52.306;5.634;2022-11-10T07:20:47;1.40;;;1.02;;
60318;SDS011;46163;52.306;5.634;2022-11-10T07:23:13;0.98;;;0.93;;
60318;SDS011;46163;52.306;5.634;2022-11-10T07:25:38;1.83;;;1.20;;
60318;SDS011;46163;52.306;5.634;2022-11-10T07:28:05;1.08;;;1.08;;
60318;SDS011;46163;52.306;5.634;2022-11-10T07:30:33;1.75;;;1.20;;
60318;SDS011;46163;52.306;5.634;2022-11-10T07:33:00;3.30;;;1.40;;
60318;SDS011;46163;52.306;5.634;2022-11-10T07:35:28;3.10;;;1.23;;
60318;SDS011;46163;52.306;5.634;2022-11-10T07:37:55;5.40;;;1.27;;
60318;SDS011;46163;52.306;5.634;2022-11-10T07:40:21;1.45;;;1.23;;
60318;SDS011;46163;52.306;5.634;2022-11-10T07:42:46;1.48;;;1.10;;
60318;SDS011;46163;52.306;5.634;2022-11-10T07:45:12;1.25;;;1.10;;
60318;SDS011;46163;52.306;5.634;2022-11-10T07:47:38;3.30;;;1.20;;
60318;SDS011;46163;52.306;5.634;2022-11-10T07:50:06;0.95;;;0.82;;
60318;SDS011;46163;52.306;5.634;2022-11-10T07:52:32;3.03;;;1.27;;
60318;SDS011;46163;52.306;5.634;2022-11-10T07:54:58;1.83;;;1.20;;
60318;SDS011;46163;52.306;5.634;2022-11-10T07:57:24;4.20;;;1.20;;
60318;SDS011;46163;52.306;5.634;2022-11-10T07:59:49;3.45;;;1.60;;
60318;SDS011;46163;52.306;5.634;2022-11-10T08:02:14;2.25;;;1.50;;
60318;SDS011;46163;52.306;5.634;2022-11-10T08:04:40;2.78;;;1.40;;
60318;SDS011;46163;52.306;5.634;2022-11-10T08:07:05;4.25;;;1.40;;
60318;SDS011;46163;52.306;5.634;2022-11-10T08:09:32;2.55;;;1.10;;
60318;SDS011;46163;52.306;5.634;2022-11-10T08:11:57;1.55;;;1.10;;
60318;SDS011;46163;52.306;5.634;2022-11-10T08:14:23;1.92;;;1.23;;
60318;SDS011;46163;52.306;5.634;2022-11-10T13:45:39;1.52;;;1.30;;
60318;SDS011;46163;52.306;5.634;2022-11-10T13:59:13;2.55;;;1.27;;
60318;SDS011;46163;52.306;5.634;2022-11-10T14:13:34;1.70;;;1.20;;
60318;SDS011;46163;52.306;5.634;2022-11-10T14:16:24;1.63;;;1.05;;
60318;SDS011;46163;52.306;5.634;2022-11-10T14:19:04;3.55;;;1.38;;
60318;SDS011;46163;52.306;5.634;2022-11-10T14:25:04;3.03;;;1.05;;
60318;SDS011;46163;52.306;5.634;2022-11-10T14:27:41;0.95;;;0.85;;
60318;SDS011;46163;52.306;5.634;2022-11-10T14:35:27;1.92;;;0.90;;
60318;SDS011;46163;52.306;5.634;2022-11-10T14:40:47;0.98;;;0.90;;
60318;SDS011;46163;52.306;5.634;2022-11-10T14:43:27;1.42;;;0.93;;
60318;SDS011;46163;52.306;5.634;2022-11-10T14:46:12;3.95;;;1.38;;
60318;SDS011;46163;52.306;5.634;2022-11-10T14:48:39;1.00;;;1.00;;
60318;SDS011;46163;52.306;5.634;2022-11-10T14:53:49;1.27;;;0.85;;
60318;SDS011;46163;52.306;5.634;2022-11-10T14:56:27;3.03;;;1.20;;
60318;SDS011;46163;52.306;5.634;2022-11-10T14:58:55;0.90;;;0.90;;
60318;SDS011;46163;52.306;5.634;2022-11-10T15:03:51;0.90;;;0.80;;
60318;SDS011;46163;52.306;5.634;2022-11-10T15:06:17;0.98;;;0.90;;
60318;SDS011;46163;52.306;5.634;2022-11-10T15:08:44;1.48;;;0.98;;
60318;SDS011;46163;52.306;5.634;2022-11-10T15:13:59;1.27;;;1.08;;
60318;SDS011;46163;52.306;5.634;2022-11-10T15:18:52;0.85;;;0.70;;
60318;SDS011;46163;52.306;5.634;2022-11-10T15:21:26;0.82;;;0.82;;
60318;SDS011;46163;52.306;5.634;2022-11-10T15:23:54;0.88;;;0.80;;
60318;SDS011;46163;52.306;5.634;2022-11-10T15:26:26;1.52;;;0.95;;
60318;SDS011;46163;52.306;5.634;2022-11-10T15:28:56;2.72;;;0.85;;
60318;SDS011;46163;52.306;5.634;2022-11-10T15:31:25;0.73;;;0.73;;
60318;SDS011;46163;52.306;5.634;2022-11-10T15:33:59;1.23;;;0.90;;
60318;SDS011;46163;52.306;5.634;2022-11-10T15:36:27;0.88;;;0.77;;
60318;SDS011;46163;52.306;5.634;2022-11-10T15:39:03;0.77;;;0.77;;
60318;SDS011;46163;52.306;5.634;2022-11-10T15:41:34;1.33;;;0.82;;
60318;SDS011;46163;52.306;5.634;2022-11-10T15:44:18;1.08;;;0.90;;
60318;SDS011;46163;52.306;5.634;2022-11-10T15:46:45;1.35;;;0.95;;
60318;SDS011;46163;52.306;5.634;2022-11-10T15:49:21;0.98;;;0.93;;
60318;SDS011;46163;52.306;5.634;2022-11-10T15:51:49;1.05;;;0.90;;
60318;SDS011;46163;52.306;5.634;2022-11-10T15:54:17;2.38;;;1.05;;
60318;SDS011;46163;52.306;5.634;2022-11-10T15:56:46;1.65;;;1.17;;
60318;SDS011;46163;52.306;5.634;2022-11-10T15:59:11;1.02;;;1.02;;
60318;SDS011;46163;52.306;5.634;2022-11-10T16:01:37;10.27;;;1.60;;
60318;SDS011;46163;52.306;5.634;2022-11-10T16:04:04;5.15;;;1.40;;
60318;SDS011;46163;52.306;5.634;2022-11-10T16:06:32;1.63;;;1.15;;
60318;SDS011;46163;52.306;5.634;2022-11-10T16:08:59;1.80;;;1.20;;
60318;SDS011;46163;52.306;5.634;2022-11-10T16:11:24;2.40;;;1.23;;
60318;SDS011;46163;52.306;5.634;2022-11-10T16:13:50;1.45;;;1.30;;
60318;SDS011;46163;52.306;5.634;2022-11-10T16:16:18;1.70;;;1.42;;
60318;SDS011;46163;52.306;5.634;2022-11-10T16:18:44;2.15;;;1.17;;
60318;SDS011;46163;52.306;5.634;2022-11-10T16:21:14;1.85;;;1.30;;
60318;SDS011;46163;52.306;5.634;2022-11-10T16:23:44;1.85;;;1.23;;
60318;SDS011;46163;52.306;5.634;2022-11-10T16:26:12;1.90;;;1.38;;
60318;SDS011;46163;52.306;5.634;2022-11-10T16:28:39;2.08;;;1.40;;
60318;SDS011;46163;52.306;5.634;2022-11-10T16:31:08;4.80;;;1.80;;
60318;SDS011;46163;52.306;5.634;2022-11-10T16:33:35;2.63;;;1.43;;
60318;SDS011;46163;52.306;5.634;2022-11-10T16:36:00;1.88;;;1.00;;
60318;SDS011;46163;52.306;5.634;2022-11-10T16:38:26;1.98;;;1.38;;
60318;SDS011;46163;52.306;5.634;2022-11-10T16:43:23;3.20;;;1.35;;
60318;SDS011;46163;52.306;5.634;2022-11-10T16:45:50;3.53;;;1.35;;
60318;SDS011;46163;52.306;5.634;2022-11-10T16:48:22;1.80;;;1.30;;
60318;SDS011;46163;52.306;5.634;2022-11-10T16:50:51;3.58;;;1.50;;
60318;SDS011;46163;52.306;5.634;2022-11-10T16:53:23;3.05;;;1.33;;
60318;SDS011;46163;52.306;5.634;2022-11-10T16:55:51;4.88;;;1.40;;
60318;SDS011;46163;52.306;5.634;2022-11-10T16:58:16;1.25;;;1.02;;
60318;SDS011;46163;52.306;5.634;2022-11-10T17:00:42;6.05;;;1.40;;
60318;SDS011;46163;52.306;5.634;2022-11-10T17:03:13;2.03;;;1.40;;
60318;SDS011;46163;52.306;5.634;2022-11-10T17:05:43;2.17;;;1.30;;
60318;SDS011;46163;52.306;5.634;2022-11-10T17:08:18;5.88;;;1.30;;
60318;SDS011;46163;52.306;5.634;2022-11-10T17:10:47;1.13;;;1.08;;
60318;SDS011;46163;52.306;5.634;2022-11-10T17:13:13;1.83;;;1.10;;
60318;SDS011;46163;52.306;5.634;2022-11-10T17:15:39;1.95;;;1.27;;
60318;SDS011;46163;52.306;5.634;2022-11-10T17:18:05;1.75;;;1.25;;
60318;SDS011;46163;52.306;5.634;2022-11-10T17:20:33;1.40;;;1.20;;
60318;SDS011;46163;52.306;5.634;2022-11-10T17:23:02;3.20;;;1.52;;
60318;SDS011;46163;52.306;5.634;2022-11-10T17:25:30;2.50;;;1.25;;
60318;SDS011;46163;52.306;5.634;2022-11-10T17:27:58;1.45;;;1.20;;
60318;SDS011;46163;52.306;5.634;2022-11-10T17:30:24;1.10;;;1.10;;
60318;SDS011;46163;52.306;5.634;2022-11-10T17:32:49;3.65;;;1.27;;
60318;SDS011;46163;52.306;5.634;2022-11-10T17:35:18;1.08;;;0.98;;
60318;SDS011;46163;52.306;5.634;2022-11-10T17:37:47;1.23;;;1.10;;
60318;SDS011;46163;52.306;5.634;2022-11-10T17:42:42;1.73;;;1.17;;
60318;SDS011;46163;52.306;5.634;2022-11-10T17:45:12;1.88;;;1.02;;
60318;SDS011;46163;52.306;5.634;2022-11-10T17:47:51;2.22;;;1.30;;
60318;SDS011;46163;52.306;5.634;2022-11-10T17:50:18;2.53;;;1.17;;
60318;SDS011;46163;52.306;5.634;2022-11-10T17:52:46;1.45;;;1.08;;
60318;SDS011;46163;52.306;5.634;2022-11-10T17:55:18;1.25;;;1.15;;
60318;SDS011;46163;52.306;5.634;2022-11-10T17:57:46;1.27;;;1.17;;
60318;SDS011;46163;52.306;5.634;2022-11-10T18:00:12;1.17;;;1.00;;
60318;SDS011;46163;52.306;5.634;2022-11-10T18:02:39;1.85;;;1.10;;
60318;SDS011;46163;52.306;5.634;2022-11-10T18:05:05;2.85;;;1.10;;
60318;SDS011;46163;52.306;5.634;2022-11-10T18:07:31;3.17;;;1.27;;
60318;SDS011;46163;52.306;5.634;2022-11-10T18:09:57;2.53;;;1.30;;
60318;SDS011;46163;52.306;5.634;2022-11-10T18:12:22;3.90;;;1.15;;
60318;SDS011;46163;52.306;5.634;2022-11-10T18:14:48;1.92;;;0.88;;
60318;SDS011;46163;52.306;5.634;2022-11-10T18:17:13;2.28;;;1.38;;
60318;SDS011;46163;52.306;5.634;2022-11-10T18:19:39;2.38;;;1.40;;
60318;SDS011;46163;52.306;5.634;2022-11-10T18:22:06;0.82;;;0.82;;
60318;SDS011;46163;52.306;5.634;2022-11-10T18:24:32;1.30;;;1.20;;
60318;SDS011;46163;52.306;5.634;2022-11-10T18:26:57;2.17;;;1.10;;
60318;SDS011;46163;52.306;5.634;2022-11-10T18:29:25;1.30;;;0.93;;
60318;SDS011;46163;52.306;5.634;2022-11-10T18:31:51;1.58;;;1.10;;
60318;SDS011;46163;52.306;5.634;2022-11-10T18:34:16;1.63;;;1.08;;
60318;SDS011;46163;52.306;5.634;2022-11-10T18:36:42;1.58;;;1.40;;
60318;SDS011;46163;52.306;5.634;2022-11-10T18:39:08;2.05;;;1.08;;
60318;SDS011;46163;52.306;5.634;2022-11-10T18:41:33;1.95;;;1.20;;
60318;SDS011;46163;52.306;5.634;2022-11-10T18:44:18;1.40;;;1.30;;
60318;SDS011;46163;52.306;5.634;2022-11-10T18:46:45;1.50;;;1.08;;
60318;SDS011;46163;52.306;5.634;2022-11-10T18:49:12;1.23;;;0.95;;
60318;SDS011;46163;52.306;5.634;2022-11-10T18:51:40;1.65;;;1.00;;
60318;SDS011;46163;52.306;5.634;2022-11-10T18:54:06;0.95;;;0.80;;
60318;SDS011;46163;52.306;5.634;2022-11-10T18:56:32;0.88;;;0.77;;
60318;SDS011;46163;52.306;5.634;2022-11-10T18:58:58;0.90;;;0.90;;
60318;SDS011;46163;52.306;5.634;2022-11-10T19:01:24;1.10;;;1.00;;
60318;SDS011;46163;52.306;5.634;2022-11-10T19:03:49;1.17;;;0.95;;
60318;SDS011;46163;52.306;5.634;2022-11-10T19:06:16;0.73;;;0.73;;
60318;SDS011;46163;52.306;5.634;2022-11-10T19:08:42;1.63;;;0.90;;
60318;SDS011;46163;52.306;5.634;2022-11-10T19:11:09;1.02;;;1.00;;
60318;SDS011;46163;52.306;5.634;2022-11-10T19:13:37;0.77;;;0.77;;
60318;SDS011;46163;52.306;5.634;2022-11-10T19:16:06;5.63;;;1.00;;
60318;SDS011;46163;52.306;5.634;2022-11-10T19:18:38;1.13;;;1.10;;
60318;SDS011;46163;52.306;5.634;2022-11-10T19:21:05;1.17;;;1.00;;
60318;SDS011;46163;52.306;5.634;2022-11-10T19:23:39;1.33;;;0.98;;
60318;SDS011;46163;52.306;5.634;2022-11-10T19:28:34;1.48;;;0.95;;
60318;SDS011;46163;52.306;5.634;2022-11-10T19:33:30;0.80;;;0.80;;
60318;SDS011;46163;52.306;5.634;2022-11-10T19:36:04;0.88;;;0.80;;
60318;SDS011;46163;52.306;5.634;2022-11-10T19:38:32;0.93;;;0.93;;
60318;SDS011;46163;52.306;5.634;2022-11-10T19:41:01;0.88;;;0.88;;
60318;SDS011;46163;52.306;5.634;2022-11-10T19:43:29;1.33;;;1.00;;
60318;SDS011;46163;52.306;5.634;2022-11-10T19:45:56;1.58;;;1.10;;
60318;SDS011;46163;52.306;5.634;2022-11-10T19:48:30;0.82;;;0.82;;
60318;SDS011;46163;52.306;5.634;2022-11-10T19:50:59;2.40;;;1.00;;
60318;SDS011;46163;52.306;5.634;2022-11-10T19:53:29;0.90;;;0.90;;
60318;SDS011;46163;52.306;5.634;2022-11-10T19:55:59;1.05;;;0.90;;
60318;SDS011;46163;52.306;5.634;2022-11-10T19:58:27;0.88;;;0.88;;
60318;SDS011;46163;52.306;5.634;2022-11-10T20:00:53;1.08;;;0.55;;
60318;SDS011;46163;52.306;5.634;2022-11-10T20:03:18;0.90;;;0.90;;
60318;SDS011;46163;52.306;5.634;2022-11-10T20:05:44;0.80;;;0.80;;
60318;SDS011;46163;52.306;5.634;2022-11-10T20:08:11;0.73;;;0.73;;
60318;SDS011;46163;52.306;5.634;2022-11-10T20:10:41;0.73;;;0.73;;
60318;SDS011;46163;52.306;5.634;2022-11-10T20:13:08;1.40;;;0.93;;
60318;SDS011;46163;52.306;5.634;2022-11-10T20:15:39;2.60;;;0.93;;
60318;SDS011;46163;52.306;5.634;2022-11-10T20:18:06;0.80;;;0.63;;
60318;SDS011;46163;52.306;5.634;2022-11-10T20:20:38;0.52;;;0.52;;
60318;SDS011;46163;52.306;5.634;2022-11-10T20:23:05;1.05;;;0.80;;
60318;SDS011;46163;52.306;5.634;2022-11-10T20:27:59;0.60;;;0.60;;
60318;SDS011;46163;52.306;5.634;2022-11-10T20:30:30;0.88;;;0.80;;
60318;SDS011;46163;52.306;5.634;2022-11-10T20:33:00;1.25;;;0.90;;
60318;SDS011;46163;52.306;5.634;2022-11-10T20:35:27;0.70;;;0.70;;
60318;SDS011;46163;52.306;5.634;2022-11-10T20:37:53;0.68;;;0.68;;
60318;SDS011;46163;52.306;5.634;2022-11-10T20:40:19;2.75;;;0.90;;
60318;SDS011;46163;52.306;5.634;2022-11-10T20:42:46;0.70;;;0.70;;
60318;SDS011;46163;52.306;5.634;2022-11-10T20:45:12;0.60;;;0.60;;
60318;SDS011;46163;52.306;5.634;2022-11-10T20:47:38;0.80;;;0.80;;
60318;SDS011;46163;52.306;5.634;2022-11-10T20:50:04;0.65;;;0.65;;
60318;SDS011;46163;52.306;5.634;2022-11-10T20:52:33;0.95;;;0.90;;
60318;SDS011;46163;52.306;5.634;2022-11-10T20:54:59;0.80;;;0.80;;
60318;SDS011;46163;52.306;5.634;2022-11-10T20:57:29;0.88;;;0.88;;
60318;SDS011;46163;52.306;5.634;2022-11-10T20:59:56;1.25;;;1.15;;
60318;SDS011;46163;52.306;5.634;2022-11-10T21:02:22;0.90;;;0.90;;
60318;SDS011;46163;52.306;5.634;2022-11-10T21:04:47;1.17;;;1.00;;
60318;SDS011;46163;52.306;5.634;2022-11-10T21:07:13;0.80;;;0.80;;
60318;SDS011;46163;52.306;5.634;2022-11-10T21:09:38;0.82;;;0.82;;
60318;SDS011;46163;52.306;5.634;2022-11-10T21:12:04;0.98;;;0.98;;
60318;SDS011;46163;52.306;5.634;2022-11-10T21:14:49;0.90;;;0.90;;
60318;SDS011;46163;52.306;5.634;2022-11-10T21:17:14;0.80;;;0.80;;
60318;SDS011;46163;52.306;5.634;2022-11-10T21:19:42;0.60;;;0.60;;